Time;durP1;ratioP1;P1;durP2;ratioP2;P2;SDS_P1;SDS_P2;PMS_P1;PMS_P2;Temp;Humidity;BMP_temperature;BMP_pressure;BME280_temperature;BME280_humidity;BME280_pressure;Samples;Min_cycle;Max_cycle;Signal;HPM_P1;HPM_P2
2023/04/12 00:02:07;;;;;;;2.73;0.97;;;;;;;6.38;56.37;100743.59;4936780;28;97130;-52
2023/04/12 00:04:34;;;;;;;1.10;0.90;;;;;;;6.39;56.26;100742.38;4937007;28;97315;-51
2023/04/12 00:07:01;;;;;;;1.37;0.80;;;;;;;6.40;56.52;100738.47;4932351;28;97048;-52
2023/04/12 00:09:29;;;;;;;2.40;0.97;;;;;;;6.39;56.24;100726.00;4934076;28;97669;-51
2023/04/12 00:11:58;;;;;;;1.37;1.27;;;;;;;6.43;56.72;100718.38;4934408;28;97121;-51
2023/04/12 00:14:24;;;;;;;2.53;1.07;;;;;;;6.46;56.10;100715.50;4932695;28;97078;-51
2023/04/12 00:16:50;;;;;;;1.10;0.80;;;;;;;6.46;56.51;100714.75;4933894;28;96926;-51
2023/04/12 00:19:16;;;;;;;1.97;1.10;;;;;;;6.47;56.83;100708.81;4935840;28;96844;-51
2023/04/12 00:21:42;;;;;;;1.00;0.53;;;;;;;6.50;56.56;100709.88;4951667;28;96913;-52
2023/04/12 00:24:07;;;;;;;1.20;1.13;;;;;;;6.49;56.40;100705.59;4935646;28;97173;-52
2023/04/12 00:26:32;;;;;;;2.50;1.10;;;;;;;6.47;56.51;100686.94;4934794;28;97136;-51
2023/04/12 00:28:58;;;;;;;1.20;1.13;;;;;;;6.48;56.49;100685.75;4933299;28;96826;-51
2023/04/12 00:31:23;;;;;;;1.47;0.83;;;;;;;6.52;56.86;100689.06;4932933;28;97190;-52
2023/04/12 00:33:49;;;;;;;1.53;1.20;;;;;;;6.54;56.40;100678.41;4935051;28;96978;-51
2023/04/12 00:36:14;;;;;;;1.57;1.07;;;;;;;6.55;56.36;100679.19;4935252;28;97717;-51
2023/04/12 00:38:41;;;;;;;1.37;1.07;;;;;;;6.54;56.58;100677.66;4932687;28;97148;-51
2023/04/12 00:41:06;;;;;;;1.20;0.97;;;;;;;6.52;56.61;100675.38;4935426;28;96645;-51
2023/04/12 00:43:32;;;;;;;0.97;0.77;;;;;;;6.52;56.51;100677.34;4933980;28;96819;-52
2023/04/12 00:45:57;;;;;;;2.17;0.90;;;;;;;6.51;56.66;100670.41;4933873;28;97489;-51
2023/04/12 00:48:25;;;;;;;0.77;0.77;;;;;;;6.51;56.83;100671.13;4932875;28;97139;-51
2023/04/12 00:50:54;;;;;;;1.17;0.87;;;;;;;6.50;56.63;100664.16;4935291;28;96912;-51
2023/04/12 00:53:21;;;;;;;2.20;1.03;;;;;;;6.54;57.05;100658.53;4937012;28;97343;-50
2023/04/12 00:55:48;;;;;;;3.90;0.90;;;;;;;6.54;56.40;100642.13;4934567;28;97168;-51
2023/04/12 00:58:15;;;;;;;3.37;1.37;;;;;;;6.57;57.01;100641.97;4934512;28;97194;-51
2023/04/12 01:00:41;;;;;;;1.20;0.90;;;;;;;6.58;57.00;100639.97;4934366;28;97004;-51
2023/04/12 01:03:10;;;;;;;2.20;1.00;;;;;;;6.61;56.82;100649.97;4932800;28;96804;-51
2023/04/12 01:05:45;;;;;;;1.87;0.97;;;;;;;6.59;57.21;100634.06;4933387;28;97310;-51
2023/04/12 01:08:22;;;;;;;1.90;1.30;;;;;;;6.62;57.24;100635.84;4932822;28;97789;-51
2023/04/12 01:11:11;;;;;;;3.37;1.80;;;;;;;6.64;58.47;100630.66;4934382;28;97091;-51
2023/04/12 01:13:55;;;;;;;1.57;1.33;;;;;;;6.66;58.17;100624.75;4932340;28;97131;-52
2023/04/12 01:16:39;;;;;;;1.77;1.67;;;;;;;6.70;57.96;100611.66;4932917;28;97978;-51
2023/04/12 01:19:33;;;;;;;2.90;1.60;;;;;;;6.73;57.43;100618.91;4932958;28;96765;-51
2023/04/12 01:22:12;;;;;;;1.63;1.53;;;;;;;6.75;57.48;100603.56;4934948;28;96899;-51
2023/04/12 01:25:15;;;;;;;3.57;1.77;;;;;;;6.77;58.38;100603.13;4933294;28;97140;-52
2023/04/12 01:27:43;;;;;;;4.53;1.90;;;;;;;6.77;57.13;100601.13;4937039;28;97381;-51
2023/04/12 01:30:11;;;;;;;2.73;2.00;;;;;;;6.80;57.21;100596.69;4937911;28;96813;-51
2023/04/12 01:32:38;;;;;;;4.93;3.00;;;;;;;6.82;56.96;100586.81;4937375;28;96985;-51
2023/04/12 01:35:06;;;;;;;4.90;2.40;;;;;;;6.85;56.94;100578.88;4936588;28;97023;-51
2023/04/12 01:37:32;;;;;;;4.47;2.47;;;;;;;6.89;57.14;100571.25;4935361;28;97372;-55
2023/04/12 01:39:59;;;;;;;4.13;2.13;;;;;;;6.87;57.13;100562.75;4937610;28;97255;-51
2023/04/12 01:42:24;;;;;;;7.17;2.70;;;;;;;6.92;57.12;100579.28;4934888;28;97035;-51
2023/04/12 01:44:50;;;;;;;3.00;2.40;;;;;;;6.92;57.15;100567.59;4935732;28;97929;-51
2023/04/12 01:47:15;;;;;;;3.50;2.30;;;;;;;6.95;56.93;100563.91;4935289;28;97172;-51
2023/04/12 01:50:17;;;;;;;4.10;2.80;;;;;;;6.98;58.16;100566.47;4936908;28;97278;-51
2023/04/12 01:52:51;;;;;;;5.70;2.57;;;;;;;6.98;57.53;100566.47;4935134;28;96818;-51
2023/04/12 01:55:20;;;;;;;4.80;1.83;;;;;;;6.99;56.84;100561.75;4936422;28;96964;-51
2023/04/12 01:57:47;;;;;;;3.60;2.30;;;;;;;6.98;57.31;100557.50;4937290;28;98567;-51
2023/04/12 02:00:15;;;;;;;4.20;2.40;;;;;;;6.96;57.11;100555.25;4936521;28;97188;-51
2023/04/12 02:02:42;;;;;;;3.03;2.00;;;;;;;6.94;57.42;100557.69;4935501;28;97275;-51
2023/04/12 02:05:08;;;;;;;1.90;1.80;;;;;;;6.90;57.36;100540.72;4935262;28;96861;-52
2023/04/12 02:07:34;;;;;;;3.37;2.33;;;;;;;6.87;57.52;100536.19;4934348;28;97257;-51
2023/04/12 02:10:00;;;;;;;3.47;2.07;;;;;;;6.86;57.71;100545.59;4937289;28;97404;-52
2023/04/12 02:12:25;;;;;;;2.13;1.80;;;;;;;6.85;57.56;100533.16;4934003;28;96778;-53
2023/04/12 02:14:51;;;;;;;3.97;2.50;;;;;;;6.83;57.67;100535.63;4934339;28;97272;-51
2023/04/12 02:17:17;;;;;;;2.37;1.97;;;;;;;6.84;57.42;100526.19;4936129;28;97391;-52
2023/04/12 02:19:42;;;;;;;1.67;1.57;;;;;;;6.82;57.43;100528.63;4935246;28;97422;-52
2023/04/12 02:22:08;;;;;;;2.90;1.90;;;;;;;6.80;57.22;100517.41;4934738;28;97004;-52
2023/04/12 02:24:33;;;;;;;2.80;1.93;;;;;;;6.79;57.61;100499.50;4938000;28;97291;-51
2023/04/12 02:27:00;;;;;;;3.27;2.20;;;;;;;6.76;57.48;100500.44;4935094;28;97186;-52
2023/04/12 02:29:25;;;;;;;2.83;1.87;;;;;;;6.74;57.84;100489.97;4936373;28;96650;-51
2023/04/12 02:31:51;;;;;;;6.73;2.57;;;;;;;6.72;57.59;100486.19;4934952;28;97313;-52
2023/04/12 02:34:16;;;;;;;2.37;1.20;;;;;;;6.69;57.53;100474.22;4936616;28;96781;-51
2023/04/12 02:36:48;;;;;;;1.53;1.43;;;;;;;6.66;57.65;100475.16;4933536;28;97426;-51
2023/04/12 02:39:17;;;;;;;2.13;1.93;;;;;;;6.66;57.74;100466.22;4936757;28;96947;-52
2023/04/12 02:41:43;;;;;;;1.83;1.67;;;;;;;6.66;58.01;100458.75;4934860;28;97192;-51
2023/04/12 02:44:08;;;;;;;1.80;1.70;;;;;;;6.65;57.53;100448.28;4934990;28;97183;-51
2023/04/12 02:46:33;;;;;;;1.83;1.40;;;;;;;6.66;57.84;100436.16;4935048;28;97014;-51
2023/04/12 02:48:59;;;;;;;2.10;1.50;;;;;;;6.70;57.90;100445.69;4934823;28;101864;-51
2023/04/12 02:51:24;;;;;;;2.40;1.57;;;;;;;6.74;57.90;100442.75;4935769;28;96762;-50
2023/04/12 02:53:50;;;;;;;2.50;1.60;;;;;;;6.76;57.81;100443.03;4937175;28;97346;-52
2023/04/12 02:56:17;;;;;;;5.30;1.43;;;;;;;6.80;57.61;100444.34;4933204;28;96978;-52
2023/04/12 02:58:43;;;;;;;1.60;1.23;;;;;;;6.84;57.73;100438.69;4935025;28;96949;-51
2023/04/12 03:01:11;;;;;;;1.37;1.27;;;;;;;6.87;57.80;100440.47;4934038;28;96637;-51
2023/04/12 03:03:37;;;;;;;1.40;1.20;;;;;;;6.88;57.54;100450.19;4934685;28;97427;-51
2023/04/12 03:06:03;;;;;;;2.70;1.40;;;;;;;6.90;57.62;100428.63;4936415;28;97300;-51
2023/04/12 03:08:30;;;;;;;4.50;1.53;;;;;;;6.88;57.52;100419.38;4933168;28;97141;-51
2023/04/12 03:10:56;;;;;;;3.00;1.20;;;;;;;6.86;57.75;100416.34;4933051;28;97345;-51
2023/04/12 03:13:21;;;;;;;1.33;1.20;;;;;;;6.86;57.75;100417.09;4933412;28;97499;-51
2023/04/12 03:15:48;;;;;;;3.70;1.47;;;;;;;6.87;57.90;100410.41;4934461;28;97229;-51
2023/04/12 03:18:13;;;;;;;1.63;1.40;;;;;;;6.86;57.46;100406.16;4934426;28;97000;-51
2023/04/12 03:20:42;;;;;;;5.23;1.50;;;;;;;6.88;57.30;100397.50;4939881;28;97132;-52
2023/04/12 03:23:08;;;;;;;2.93;1.13;;;;;;;6.84;57.74;100384.00;4935856;28;97112;-51
2023/04/12 03:25:33;;;;;;;1.57;1.40;;;;;;;6.84;57.86;100386.00;4934069;28;97779;-51
2023/04/12 03:27:58;;;;;;;1.63;1.20;;;;;;;6.82;57.72;100379.03;4932677;28;97186;-50
2023/04/12 03:30:24;;;;;;;2.20;1.30;;;;;;;6.84;57.71;100367.59;4933423;28;96994;-51
2023/04/12 03:32:49;;;;;;;2.40;1.37;;;;;;;6.85;57.90;100363.66;4934336;28;97249;-51
2023/04/12 03:35:14;;;;;;;1.30;1.17;;;;;;;6.82;57.80;100357.16;4936330;28;97190;-52
2023/04/12 03:37:41;;;;;;;1.57;1.10;;;;;;;6.83;57.81;100349.69;4934110;28;98418;-51
2023/04/12 03:40:08;;;;;;;2.87;1.30;;;;;;;6.81;57.96;100343.97;4934434;28;97145;-51
2023/04/12 03:42:34;;;;;;;1.47;1.30;;;;;;;6.82;57.98;100342.72;4934138;28;97260;-51
2023/04/12 03:45:00;;;;;;;2.30;1.27;;;;;;;6.85;57.74;100339.03;4933659;28;97056;-51
2023/04/12 03:47:25;;;;;;;2.60;0.90;;;;;;;6.88;57.83;100331.88;4935139;28;97216;-51
2023/04/12 03:49:53;;;;;;;2.63;1.40;;;;;;;6.92;58.03;100325.00;4927151;28;97236;-52
2023/04/12 03:52:19;;;;;;;7.97;1.60;;;;;;;6.92;57.66;100316.78;4933928;28;98645;-51
2023/04/12 03:54:44;;;;;;;6.20;1.87;;;;;;;6.90;57.91;100321.97;4934590;28;97365;-51
2023/04/12 03:57:09;;;;;;;1.60;0.93;;;;;;;6.89;57.75;100308.75;4933650;28;97262;-51
2023/04/12 03:59:35;;;;;;;2.90;1.20;;;;;;;6.87;57.66;100305.75;4937556;28;96940;-52
2023/04/12 04:02:00;;;;;;;4.30;1.30;;;;;;;6.87;58.01;100313.94;4935222;28;96765;-51
2023/04/12 04:04:26;;;;;;;3.07;1.27;;;;;;;6.84;57.82;100290.31;4932795;28;97375;-51
2023/04/12 04:06:52;;;;;;;2.57;1.23;;;;;;;6.85;57.49;100287.09;4931326;28;97067;-51
2023/04/12 04:09:18;;;;;;;0.80;0.80;;;;;;;6.86;57.61;100285.84;4934291;28;98022;-52
2023/04/12 04:11:43;;;;;;;2.73;1.10;;;;;;;6.88;57.81;100275.19;4935963;28;97388;-51
2023/04/12 04:14:09;;;;;;;5.63;1.50;;;;;;;6.91;57.61;100282.47;4934876;28;97448;-51
2023/04/12 04:16:34;;;;;;;2.20;0.93;;;;;;;6.94;57.35;100270.56;4936352;28;97091;-50
2023/04/12 04:19:00;;;;;;;2.43;1.10;;;;;;;6.95;57.59;100261.13;4937466;28;96863;-52
2023/04/12 04:21:25;;;;;;;0.90;0.90;;;;;;;6.94;57.79;100256.91;4930774;28;96996;-50
2023/04/12 04:23:51;;;;;;;1.17;1.07;;;;;;;6.96;57.52;100262.66;4932474;28;97732;-51
2023/04/12 04:26:17;;;;;;;1.93;1.20;;;;;;;6.97;57.42;100253.19;4935485;28;97207;-51
2023/04/12 04:28:44;;;;;;;3.00;1.10;;;;;;;6.99;57.51;100272.63;4932642;28;99670;-50
2023/04/12 04:31:12;;;;;;;3.63;1.20;;;;;;;6.98;57.56;100257.44;4936155;28;97044;-51
2023/04/12 04:33:38;;;;;;;2.23;1.23;;;;;;;7.00;57.47;100256.97;4934117;28;97315;-51
2023/04/12 04:36:05;;;;;;;1.50;1.17;;;;;;;7.01;57.63;100261.22;4933281;28;97551;-51
2023/04/12 04:38:33;;;;;;;2.30;1.20;;;;;;;7.02;57.52;100244.31;4933221;28;97049;-50
2023/04/12 04:41:03;;;;;;;4.90;1.50;;;;;;;7.01;57.70;100242.81;4933108;28;97612;-52
2023/04/12 04:43:29;;;;;;;4.47;1.40;;;;;;;6.97;57.37;100244.25;4935168;28;98572;-51
2023/04/12 04:45:58;;;;;;;3.07;1.23;;;;;;;6.97;57.57;100250.47;4934039;28;97191;-51
2023/04/12 04:48:23;;;;;;;1.20;1.10;;;;;;;7.01;57.49;100259.22;4935718;28;97083;-51
2023/04/12 04:50:52;;;;;;;1.37;1.07;;;;;;;7.02;57.19;100244.31;4931414;28;97360;-52
2023/04/12 04:53:19;;;;;;;1.03;0.80;;;;;;;7.02;57.47;100246.31;4934118;28;97154;-52
2023/04/12 04:55:46;;;;;;;3.33;1.37;;;;;;;7.02;57.35;100238.84;4934249;28;96915;-51
2023/04/12 04:58:12;;;;;;;3.70;1.20;;;;;;;7.01;57.40;100245.53;4932646;28;97214;-51
2023/04/12 05:00:38;;;;;;;6.33;1.10;;;;;;;7.00;57.43;100235.09;4933189;28;96929;-53
2023/04/12 05:03:03;;;;;;;2.97;1.30;;;;;;;6.94;57.32;100228.81;4931799;28;97085;-52
2023/04/12 05:05:29;;;;;;;4.33;1.10;;;;;;;6.88;57.38;100217.78;4934650;28;97778;-51
2023/04/12 05:07:55;;;;;;;1.30;1.00;;;;;;;6.85;57.47;100215.25;4934216;28;96775;-51
2023/04/12 05:10:21;;;;;;;1.17;1.07;;;;;;;6.80;57.83;100203.78;4933584;28;96891;-51
2023/04/12 05:12:46;;;;;;;1.10;1.00;;;;;;;6.82;57.65;100200.56;4931734;28;97834;-51
2023/04/12 05:15:11;;;;;;;2.20;1.30;;;;;;;6.86;57.85;100208.56;4932182;28;97477;-50
2023/04/12 05:17:37;;;;;;;1.70;1.40;;;;;;;6.88;57.53;100200.66;4935762;28;96935;-51
2023/04/12 05:20:07;;;;;;;1.10;1.00;;;;;;;6.90;57.30;100201.69;4933255;28;96709;-51
2023/04/12 05:22:33;;;;;;;2.30;1.20;;;;;;;6.93;57.20;100192.50;4932902;28;97912;-51
2023/04/12 05:25:00;;;;;;;1.20;1.10;;;;;;;6.95;57.50;100198.22;4933394;28;97549;-52
2023/04/12 05:27:26;;;;;;;3.97;1.10;;;;;;;6.93;57.75;100187.03;4934032;28;99736;-51
2023/04/12 05:29:52;;;;;;;1.13;0.87;;;;;;;6.94;57.61;100193.25;4936109;28;97514;-51
2023/04/12 05:32:18;;;;;;;1.73;1.40;;;;;;;6.99;57.60;100181.66;4934895;28;97169;-52
2023/04/12 05:34:43;;;;;;;4.30;1.00;;;;;;;7.05;57.52;100187.94;4933371;28;96916;-52
2023/04/12 05:37:08;;;;;;;1.73;1.10;;;;;;;7.11;57.68;100184.03;4931510;28;96741;-51
2023/04/12 05:39:34;;;;;;;1.10;0.80;;;;;;;7.25;57.81;100174.25;4936313;28;97014;-51
2023/04/12 05:41:59;;;;;;;1.63;1.40;;;;;;;7.38;57.87;100177.38;4934699;28;97230;-52
2023/04/12 05:44:24;;;;;;;1.90;1.03;;;;;;;7.52;57.73;100163.59;4932802;28;97075;-51
2023/04/12 05:46:50;;;;;;;1.37;0.80;;;;;;;7.66;57.20;100166.69;4933426;28;96840;-51
2023/04/12 05:49:15;;;;;;;1.43;0.93;;;;;;;7.74;57.36;100171.25;4932146;28;97260;-51
2023/04/12 05:51:40;;;;;;;1.30;1.30;;;;;;;7.80;57.48;100160.38;4933858;28;97850;-51
2023/04/12 05:54:06;;;;;;;3.33;0.90;;;;;;;7.88;57.55;100161.41;4933293;28;99466;-52
2023/04/12 05:56:32;;;;;;;8.23;1.27;;;;;;;7.93;57.41;100149.78;4932839;28;97196;-50
2023/04/12 05:58:58;;;;;;;1.67;1.40;;;;;;;8.03;57.14;100159.31;4932167;28;96919;-51
2023/04/12 06:01:30;;;;;;;2.10;1.10;;;;;;;8.13;57.01;100166.09;4930050;28;96821;-52
2023/04/12 06:04:01;;;;;;;1.17;1.07;;;;;;;8.18;57.06;100163.41;4932640;28;97550;-51
2023/04/12 06:06:28;;;;;;;1.93;1.10;;;;;;;8.22;56.67;100149.47;4929515;28;96758;-53
2023/04/12 06:08:55;;;;;;;1.70;1.13;;;;;;;8.27;56.83;100144.06;4929566;28;96992;-51
2023/04/12 06:11:20;;;;;;;2.00;1.23;;;;;;;8.35;56.70;100141.63;4932570;28;97916;-52
2023/04/12 06:13:46;;;;;;;1.63;1.13;;;;;;;8.42;57.18;100132.19;4935996;28;97289;-51
2023/04/12 06:16:12;;;;;;;1.60;1.27;;;;;;;8.49;56.56;100123.50;4937358;28;97264;-52
2023/04/12 06:18:37;;;;;;;1.57;1.43;;;;;;;8.53;56.79;100113.06;4935961;28;97484;-52
2023/04/12 06:21:03;;;;;;;3.87;1.50;;;;;;;8.58;56.64;100124.06;4935433;28;98072;-51
2023/04/12 06:23:28;;;;;;;1.37;0.90;;;;;;;8.69;56.54;100118.63;4941248;28;97123;-51
2023/04/12 06:25:54;;;;;;;3.33;1.10;;;;;;;8.76;56.58;100112.66;4934633;28;97121;-51
2023/04/12 06:28:19;;;;;;;1.67;1.03;;;;;;;8.82;56.65;100110.69;4936628;28;96841;-52
2023/04/12 06:30:45;;;;;;;3.80;1.07;;;;;;;8.89;56.34;100099.25;4938204;28;97626;-52
2023/04/12 06:33:10;;;;;;;1.77;1.17;;;;;;;8.99;56.51;100111.53;4936613;28;98252;-51
2023/04/12 06:35:36;;;;;;;1.70;1.03;;;;;;;9.06;56.40;100100.06;4935315;28;97034;-52
2023/04/12 06:38:01;;;;;;;4.10;1.20;;;;;;;9.15;56.24;100104.59;4939854;28;98444;-52
2023/04/12 06:40:26;;;;;;;2.50;1.00;;;;;;;9.23;56.15;100102.09;4935224;28;97613;-52
2023/04/12 06:42:52;;;;;;;5.40;1.20;;;;;;;9.28;56.33;100088.41;4933151;28;97213;-52
2023/04/12 06:45:17;;;;;;;4.17;1.30;;;;;;;9.36;56.33;100083.91;4934388;28;97084;-50
2023/04/12 06:47:43;;;;;;;0.80;0.80;;;;;;;9.46;56.12;100082.41;4934209;28;97028;-52
2023/04/12 06:50:09;;;;;;;4.77;1.43;;;;;;;9.55;56.07;100076.69;4935183;28;97288;-52
2023/04/12 06:52:34;;;;;;;1.50;1.23;;;;;;;9.65;55.91;100061.44;4938623;28;97395;-52
2023/04/12 06:54:59;;;;;;;3.73;1.40;;;;;;;9.77;55.71;100067.69;4937138;28;97056;-53
2023/04/12 06:57:25;;;;;;;0.97;0.87;;;;;;;9.87;55.89;100071.69;4937304;28;97017;-52
2023/04/12 06:59:50;;;;;;;2.57;1.20;;;;;;;9.95;55.66;100061.69;4933334;28;97262;-51
2023/04/12 07:02:15;;;;;;;2.73;1.20;;;;;;;10.03;55.72;100059.91;4934786;28;97099;-51
2023/04/12 07:04:41;;;;;;;2.70;1.17;;;;;;;10.12;55.69;100059.69;4936084;28;96994;-52
2023/04/12 07:07:06;;;;;;;2.50;0.97;;;;;;;10.17;55.50;100052.66;4941714;28;98552;-51
2023/04/12 07:09:32;;;;;;;1.67;1.30;;;;;;;10.21;55.43;100044.91;4938236;28;97379;-51
2023/04/12 07:11:58;;;;;;;2.30;1.30;;;;;;;10.30;55.47;100039.91;4932928;28;96760;-52
2023/04/12 07:14:24;;;;;;;1.73;1.50;;;;;;;10.41;55.42;100039.84;4936291;28;96886;-52
2023/04/12 07:16:49;;;;;;;1.27;1.17;;;;;;;10.50;55.15;100022.31;4937429;28;97158;-52
2023/04/12 07:19:15;;;;;;;1.40;1.30;;;;;;;10.57;55.30;100026.53;4935646;28;97088;-51
2023/04/12 07:21:41;;;;;;;1.57;0.90;;;;;;;10.65;55.40;100028.25;4933285;28;97125;-51
2023/04/12 07:24:06;;;;;;;2.47;1.10;;;;;;;10.76;55.09;100017.19;4933968;28;96978;-51
2023/04/12 07:26:32;;;;;;;1.30;0.97;;;;;;;10.88;55.00;100021.38;4936253;28;97300;-51
2023/04/12 07:28:57;;;;;;;2.23;1.00;;;;;;;10.99;55.06;100021.28;4936625;28;97410;-51
2023/04/12 07:31:22;;;;;;;2.40;1.10;;;;;;;11.11;54.83;100008.97;4939883;28;96967;-52
2023/04/12 07:33:48;;;;;;;2.93;1.07;;;;;;;11.22;54.98;100013.66;4936430;28;97079;-52
2023/04/12 07:36:15;;;;;;;1.13;1.03;;;;;;;11.33;54.47;100003.28;4939026;28;97176;-51
2023/04/12 07:38:41;;;;;;;3.73;1.10;;;;;;;11.43;54.44;100011.97;4936639;28;97392;-52
2023/04/12 07:41:06;;;;;;;2.70;0.83;;;;;;;11.53;54.44;100004.84;4935845;28;97167;-51
2023/04/12 07:43:31;;;;;;;3.03;0.97;;;;;;;11.68;54.54;99996.25;4934788;28;97063;-51
2023/04/12 07:45:57;;;;;;;2.53;0.93;;;;;;;11.79;54.17;99985.88;4939812;28;96847;-51
2023/04/12 07:48:22;;;;;;;1.00;0.90;;;;;;;11.92;54.25;99985.25;4935190;28;97029;-51
2023/04/12 07:50:48;;;;;;;1.80;1.10;;;;;;;12.13;54.45;99977.22;4933216;28;97203;-52
2023/04/12 07:53:25;;;;;;;5.83;0.90;;;;;;;12.33;53.81;99958.19;4934626;28;97080;-51
2023/04/12 07:55:51;;;;;;;0.97;0.83;;;;;;;12.51;54.07;99945.66;4936597;28;96759;-51
2023/04/12 07:58:18;;;;;;;2.20;1.07;;;;;;;12.69;53.86;99947.66;4936279;28;96900;-51
2023/04/12 08:00:44;;;;;;;1.30;0.73;;;;;;;12.77;53.54;99941.03;4936166;28;96927;-51
2023/04/12 08:03:13;;;;;;;1.17;0.97;;;;;;;12.79;53.41;99938.50;4937371;28;97193;-52
2023/04/12 08:05:39;;;;;;;3.00;1.30;;;;;;;12.83;53.46;99932.66;4935375;28;96844;-51
2023/04/12 08:08:05;;;;;;;2.40;0.80;;;;;;;12.91;53.36;99939.03;4936201;28;97357;-53
2023/04/12 08:10:31;;;;;;;1.17;0.70;;;;;;;12.95;53.13;99919.44;4933882;28;97474;-51
2023/04/12 08:12:57;;;;;;;1.03;0.90;;;;;;;13.04;53.15;99917.00;4933767;28;96799;-52
2023/04/12 08:15:23;;;;;;;0.90;0.73;;;;;;;13.09;53.14;99910.69;4936217;28;97015;-51
2023/04/12 08:17:48;;;;;;;1.73;0.90;;;;;;;13.15;53.17;99907.84;4935866;28;97364;-53
2023/04/12 08:20:14;;;;;;;2.40;1.10;;;;;;;13.23;53.10;99909.44;4931994;28;96751;-52
2023/04/12 08:22:41;;;;;;;0.80;0.80;;;;;;;13.34;53.16;99887.16;4936602;28;97015;-51
2023/04/12 08:25:07;;;;;;;2.80;1.30;;;;;;;13.42;52.92;99881.72;4935115;28;96978;-52
2023/04/12 08:27:32;;;;;;;5.67;1.00;;;;;;;13.54;52.98;99875.47;4934148;28;97767;-53
2023/04/12 08:29:58;;;;;;;1.00;0.77;;;;;;;13.69;52.77;99877.72;4934865;28;96686;-52
2023/04/12 08:32:23;;;;;;;0.80;0.70;;;;;;;13.79;52.78;99887.03;4935317;28;96860;-51
2023/04/12 08:34:48;;;;;;;2.67;1.30;;;;;;;13.84;52.59;99868.84;4937716;28;97032;-51
2023/04/12 08:37:15;;;;;;;0.67;0.67;;;;;;;13.90;52.58;99869.47;4931265;28;97016;-51
2023/04/12 08:39:41;;;;;;;0.70;0.70;;;;;;;13.96;52.33;99872.88;4935019;28;97404;-52
2023/04/12 08:42:06;;;;;;;1.10;0.93;;;;;;;13.96;52.25;99873.63;4934394;28;96882;-52
2023/04/12 08:44:38;;;;;;;1.20;0.80;;;;;;;13.98;51.99;99873.06;4937133;28;96829;-51
2023/04/12 08:47:05;;;;;;;2.43;1.10;;;;;;;14.02;52.30;99859.69;4937412;28;97208;-51
2023/04/12 08:49:31;;;;;;;1.67;0.90;;;;;;;14.09;52.39;99868.06;4935422;28;97108;-51
2023/04/12 08:52:00;;;;;;;2.67;0.80;;;;;;;14.22;52.40;99876.34;4935619;28;97552;-51
2023/04/12 08:54:26;;;;;;;0.83;0.83;;;;;;;14.33;52.46;99872.59;4936821;28;96951;-51
2023/04/12 08:56:56;;;;;;;1.00;0.87;;;;;;;14.35;52.23;99858.25;4933980;28;97111;-51
2023/04/12 08:59:22;;;;;;;1.40;0.90;;;;;;;14.27;52.53;99863.66;4933207;28;97214;-51
2023/04/12 09:01:49;;;;;;;2.40;0.90;;;;;;;14.22;52.57;99861.75;4935217;28;97750;-52
2023/04/12 09:04:14;;;;;;;1.67;0.90;;;;;;;14.17;52.77;99879.22;4936012;28;97139;-52
2023/04/12 09:06:41;;;;;;;4.20;1.03;;;;;;;14.05;52.89;99862.13;4931682;28;97161;-51
2023/04/12 09:09:06;;;;;;;1.20;0.77;;;;;;;13.95;53.24;99857.56;4933812;28;97160;-52
2023/04/12 09:11:31;;;;;;;1.23;0.80;;;;;;;13.89;53.43;99846.63;4934451;28;96985;-51
2023/04/12 09:13:57;;;;;;;0.70;0.70;;;;;;;13.79;53.75;99851.09;4933684;28;96924;-52
2023/04/12 09:16:52;;;;;;;1.20;0.60;;;;;;;13.70;54.91;99843.25;4931693;28;97239;-52
2023/04/12 09:19:33;;;;;;;3.00;0.90;;;;;;;13.63;54.64;99854.94;4925989;28;96966;-51
2023/04/12 09:21:59;;;;;;;0.80;0.70;;;;;;;13.53;54.38;99838.06;4934916;28;96994;-51
2023/04/12 09:24:24;;;;;;;1.00;0.90;;;;;;;13.44;54.48;99848.78;4934945;28;96636;-51
2023/04/12 09:27:06;;;;;;;3.10;0.97;;;;;;;13.28;55.37;99845.06;4932589;28;97088;-51
2023/04/12 09:29:33;;;;;;;1.67;1.10;;;;;;;13.24;55.12;99836.34;4932511;28;97097;-51
2023/04/12 09:32:06;;;;;;;3.47;0.97;;;;;;;13.22;55.57;99836.13;4932985;28;96987;-51
2023/04/12 09:34:37;;;;;;;1.60;0.90;;;;;;;13.18;55.53;99835.72;4934490;28;97140;-53
2023/04/12 09:37:15;;;;;;;1.57;1.47;;;;;;;13.08;56.17;99829.13;4931838;28;97379;-54
2023/04/12 09:39:42;;;;;;;1.50;0.80;;;;;;;13.00;55.72;99830.97;4937424;28;97269;-51
2023/04/12 09:42:09;;;;;;;1.43;1.10;;;;;;;13.02;55.94;99820.13;4933438;28;96713;-51
2023/04/12 09:44:34;;;;;;;1.20;1.00;;;;;;;13.00;56.14;99830.97;4932291;28;96997;-52
2023/04/12 09:47:01;;;;;;;1.20;0.77;;;;;;;13.00;56.18;99814.41;4935282;28;97803;-51
2023/04/12 09:49:40;;;;;;;2.10;1.00;;;;;;;12.93;57.33;99817.78;4939166;28;97421;-52
2023/04/12 09:52:11;;;;;;;1.10;0.83;;;;;;;12.91;56.95;99817.56;4937173;28;96686;-52
2023/04/12 09:54:49;;;;;;;1.77;0.90;;;;;;;12.91;57.48;99811.34;4937464;28;96839;-51
2023/04/12 09:57:20;;;;;;;2.03;0.93;;;;;;;12.81;56.64;99813.75;4937183;28;97771;-50
2023/04/12 09:59:48;;;;;;;2.20;0.90;;;;;;;12.74;56.97;99800.56;4939489;28;97256;-51
2023/04/12 10:02:16;;;;;;;1.67;0.97;;;;;;;12.71;56.91;99799.59;4938636;28;96791;-51
2023/04/12 10:04:43;;;;;;;2.33;1.00;;;;;;;12.66;57.14;99792.19;4939428;28;96916;-51
2023/04/12 10:07:08;;;;;;;4.77;1.00;;;;;;;12.64;57.26;99797.47;4936553;28;97422;-51
2023/04/12 10:09:37;;;;;;;1.00;0.90;;;;;;;12.63;57.63;99784.94;4937309;28;97028;-51
2023/04/12 10:12:03;;;;;;;0.90;0.70;;;;;;;12.61;57.42;99787.47;4939653;28;97137;-51
2023/04/12 10:14:29;;;;;;;1.67;0.87;;;;;;;12.62;57.50;99791.00;4936018;28;97152;-51
2023/04/12 10:17:00;;;;;;;2.53;1.03;;;;;;;12.63;58.00;99778.66;4936519;28;97217;-51
2023/04/12 10:19:28;;;;;;;1.00;0.80;;;;;;;12.62;57.71;99782.72;4935804;28;98346;-51
2023/04/12 10:21:56;;;;;;;3.50;1.00;;;;;;;12.65;57.97;99779.63;4934949;28;97109;-51
2023/04/12 10:24:27;;;;;;;1.57;0.90;;;;;;;12.70;58.28;99780.81;4934349;28;97105;-52
2023/04/12 10:26:54;;;;;;;1.33;0.90;;;;;;;12.74;58.04;99782.00;4935447;28;98290;-52
2023/04/12 10:29:30;;;;;;;2.63;1.33;;;;;;;12.81;57.84;99769.59;4935828;28;97343;-52
2023/04/12 10:32:19;;;;;;;2.87;1.20;;;;;;;12.79;59.25;99766.63;4937227;28;97055;-51
2023/04/12 10:34:53;;;;;;;2.00;1.00;;;;;;;12.82;58.42;99760.00;4934319;28;96984;-52
2023/04/12 10:37:19;;;;;;;2.80;1.20;;;;;;;12.85;58.19;99758.97;4934919;28;97327;-52
2023/04/12 10:39:51;;;;;;;1.40;1.10;;;;;;;12.95;59.04;99765.56;4935300;28;97165;-51
2023/04/12 10:42:24;;;;;;;2.40;1.27;;;;;;;13.09;59.14;99752.53;4936245;28;96778;-52
2023/04/12 10:45:16;;;;;;;2.60;0.97;;;;;;;13.16;58.66;99755.41;4936164;28;97171;-51
2023/04/12 10:47:47;;;;;;;2.90;1.20;;;;;;;13.18;58.85;99730.75;4936634;28;97802;-51
2023/04/12 10:50:19;;;;;;;1.17;1.00;;;;;;;13.26;58.58;99734.34;4934075;28;97169;-52
2023/04/12 10:53:17;;;;;;;2.13;1.07;;;;;;;13.30;59.30;99729.25;4934718;28;97056;-52
2023/04/12 10:55:44;;;;;;;1.17;1.17;;;;;;;13.34;57.94;99726.94;4939001;28;97829;-51
2023/04/12 10:58:28;;;;;;;1.23;0.90;;;;;;;13.33;58.25;99730.94;4935764;28;97233;-52
2023/04/12 11:00:56;;;;;;;1.10;1.00;;;;;;;13.31;58.69;99721.72;4933242;28;97186;-51
2023/04/12 11:03:23;;;;;;;5.03;1.30;;;;;;;13.32;58.52;99729.44;4935338;28;97134;-51
2023/04/12 11:06:01;;;;;;;1.30;1.20;;;;;;;13.30;59.33;99720.97;4941616;28;97401;-51
2023/04/12 11:08:30;;;;;;;1.40;1.10;;;;;;;13.29;58.74;99724.25;4938453;28;97364;-51
2023/04/12 11:11:17;;;;;;;1.20;0.90;;;;;;;13.31;59.36;99721.72;4936672;28;98049;-51
2023/04/12 11:13:43;;;;;;;1.10;1.00;;;;;;;13.34;58.92;99726.94;4933811;28;97767;-51
2023/04/12 11:16:11;;;;;;;2.50;1.20;;;;;;;13.38;58.91;99713.53;4936377;28;96786;-51
2023/04/12 11:18:37;;;;;;;1.43;1.20;;;;;;;13.43;58.77;99711.94;4935354;28;97328;-51
2023/04/12 11:21:03;;;;;;;1.80;1.20;;;;;;;13.47;58.78;99707.56;4932795;28;97078;-51
2023/04/12 11:23:30;;;;;;;1.70;0.90;;;;;;;13.50;59.00;99711.25;4936575;28;96615;-51
2023/04/12 11:25:56;;;;;;;1.20;1.10;;;;;;;13.51;58.89;99702.44;4934673;28;96836;-51
2023/04/12 11:28:22;;;;;;;2.83;1.30;;;;;;;13.53;58.90;99708.19;4934990;28;98611;-51
2023/04/12 11:30:57;;;;;;;1.57;0.87;;;;;;;13.50;59.84;99705.72;4939863;28;97057;-51
2023/04/12 11:33:36;;;;;;;1.13;1.03;;;;;;;13.46;60.08;99697.78;4937600;28;97118;-51
2023/04/12 11:36:05;;;;;;;2.00;1.07;;;;;;;13.45;58.86;99699.03;4933973;28;97139;-51
2023/04/12 11:38:31;;;;;;;3.23;0.87;;;;;;;13.45;58.96;99692.78;4934856;28;97369;-51